createdAt,value
2019-03-29T00:01:35.452Z,28.77
2019-03-29T00:04:06.315Z,30.23
2019-03-29T00:06:37.562Z,29.93
2019-03-29T00:09:08.976Z,31.27
2019-03-29T00:11:39.836Z,29.17
2019-03-29T00:14:10.583Z,30.87
2019-03-29T00:16:41.369Z,33.30
2019-03-29T00:19:12.128Z,35.00
2019-03-29T00:21:42.947Z,32.60
2019-03-29T00:24:14.946Z,29.77
2019-03-29T00:26:45.908Z,36.87
2019-03-29T00:29:16.709Z,32.47
2019-03-29T00:31:47.501Z,35.50
2019-03-29T00:34:18.434Z,35.33
2019-03-29T00:36:49.150Z,33.10
2019-03-29T00:39:19.898Z,31.03
2019-03-29T00:41:50.971Z,32.80
2019-03-29T00:44:21.857Z,33.67
2019-03-29T00:46:52.628Z,31.93
2019-03-29T00:49:23.420Z,34.90
2019-03-29T00:51:54.220Z,34.63
2019-03-29T00:54:25.120Z,27.53
2019-03-29T00:56:55.857Z,31.97
2019-03-29T00:59:26.698Z,36.53
2019-03-29T01:01:58.501Z,31.87
2019-03-29T01:04:29.335Z,30.87
2019-03-29T01:07:00.095Z,33.67
2019-03-29T01:09:31.918Z,38.50
2019-03-29T01:12:02.870Z,38.43
2019-03-29T01:14:33.605Z,36.47
2019-03-29T01:17:04.339Z,36.47
2019-03-29T01:19:35.359Z,35.50
2019-03-29T01:22:06.201Z,37.17
2019-03-29T01:24:36.938Z,36.00
2019-03-29T01:27:07.697Z,32.90
2019-03-29T01:29:38.665Z,36.00
2019-03-29T01:32:09.553Z,40.47
2019-03-29T01:34:40.308Z,37.10
2019-03-29T01:37:11.052Z,39.67
2019-03-29T01:39:43.278Z,37.17
2019-03-29T01:42:14.099Z,39.73
2019-03-29T01:44:44.830Z,36.27
2019-03-29T01:47:15.556Z,37.37
2019-03-29T01:49:46.367Z,37.07
2019-03-29T01:52:17.161Z,34.63
2019-03-29T01:54:48.685Z,37.43
2019-03-29T01:57:19.422Z,39.90
2019-03-29T01:59:50.218Z,36.80
2019-03-29T02:02:21.106Z,42.37
2019-03-29T02:04:52.220Z,38.87
2019-03-29T02:07:22.968Z,37.83
2019-03-29T02:09:53.754Z,40.53
2019-03-29T02:12:24.536Z,40.10
2019-03-29T02:14:56.468Z,40.47
2019-03-29T02:17:27.210Z,36.23
2019-03-29T02:19:58.358Z,43.83
2019-03-29T02:22:30.220Z,44.63
2019-03-29T02:25:00.990Z,47.23
2019-03-29T02:27:31.784Z,43.93
2019-03-29T02:30:04.372Z,42.07
2019-03-29T02:32:35.399Z,45.90
2019-03-29T02:35:06.385Z,40.90
2019-03-29T02:37:37.174Z,52.90
2019-03-29T02:40:08.168Z,43.30
2019-03-29T02:42:38.937Z,104.67
2019-03-29T02:45:09.789Z,55.10
2019-03-29T02:47:40.533Z,49.27
2019-03-29T02:50:11.799Z,43.47
2019-03-29T02:52:42.735Z,80.07
2019-03-29T02:55:13.929Z,67.33
2019-03-29T02:57:44.671Z,61.23
2019-03-29T03:00:15.775Z,118.43
2019-03-29T03:02:46.612Z,88.40
2019-03-29T03:05:17.441Z,139.97
2019-03-29T03:07:48.181Z,75.37
2019-03-29T03:10:19.044Z,71.67
2019-03-29T03:12:49.880Z,109.30
2019-03-29T03:15:20.656Z,90.17
2019-03-29T03:17:51.424Z,137.30
2019-03-29T03:20:22.328Z,74.93
2019-03-29T03:22:53.230Z,84.43
2019-03-29T03:25:23.986Z,90.20
2019-03-29T03:27:54.705Z,65.57
2019-03-29T03:30:25.491Z,70.47
2019-03-29T03:32:56.319Z,64.00
2019-03-29T03:35:27.124Z,101.40
2019-03-29T03:37:57.842Z,47.73
2019-03-29T03:40:28.607Z,75.23
2019-03-29T03:42:59.401Z,62.40
2019-03-29T03:45:30.189Z,77.43
2019-03-29T03:48:00.931Z,77.73
2019-03-29T03:50:43.722Z,67.97
2019-03-29T03:53:14.584Z,66.57
2019-03-29T03:55:46.446Z,63.37
2019-03-29T03:58:19.622Z,48.40
2019-03-29T04:00:58.175Z,46.47
2019-03-29T04:03:28.984Z,48.97
2019-03-29T04:05:59.780Z,132.43
2019-03-29T04:08:30.548Z,38.17
2019-03-29T04:11:01.338Z,53.23
2019-03-29T04:13:32.162Z,62.60
2019-03-29T04:16:03.070Z,48.67
2019-03-29T04:18:33.795Z,52.50
2019-03-29T04:21:04.789Z,46.73
2019-03-29T04:23:35.625Z,58.43
2019-03-29T04:26:06.395Z,43.37
2019-03-29T04:28:38.209Z,39.63
2019-03-29T04:31:09.028Z,69.80
2019-03-29T04:33:39.789Z,49.27
2019-03-29T04:36:10.865Z,48.97
2019-03-29T04:38:41.620Z,51.00
2019-03-29T04:41:12.398Z,56.90
2019-03-29T04:43:43.164Z,49.57
2019-03-29T04:46:14.002Z,46.63
2019-03-29T04:48:44.736Z,43.93
2019-03-29T04:51:15.542Z,38.40
2019-03-29T04:53:46.374Z,38.03
2019-03-29T04:56:17.283Z,42.97
2019-03-29T04:58:48.082Z,36.20
2019-03-29T05:01:18.823Z,43.20
2019-03-29T05:03:49.610Z,31.57
2019-03-29T05:06:20.422Z,39.53
2019-03-29T05:08:51.291Z,44.73
2019-03-29T05:11:22.012Z,46.37
2019-03-29T05:13:52.829Z,37.27
2019-03-29T05:16:23.646Z,30.70
2019-03-29T05:18:54.457Z,32.20
2019-03-29T05:21:25.226Z,56.67
2019-03-29T05:23:56.132Z,53.47
2019-03-29T05:26:26.902Z,62.93
2019-03-29T05:28:57.688Z,46.33
2019-03-29T05:31:28.511Z,34.40
2019-03-29T05:33:59.255Z,36.40
2019-03-29T05:36:30.175Z,31.00
2019-03-29T05:39:01.032Z,28.50
2019-03-29T05:41:33.633Z,33.33
2019-03-29T05:44:04.336Z,29.33
2019-03-29T05:46:35.147Z,33.73
2019-03-29T05:49:05.998Z,51.03
2019-03-29T05:51:37.015Z,44.70
2019-03-29T05:54:07.759Z,50.87
2019-03-29T05:56:38.983Z,57.73
2019-03-29T05:59:09.711Z,36.17
2019-03-29T06:01:40.565Z,35.73
2019-03-29T06:04:11.321Z,35.53
2019-03-29T06:06:42.375Z,42.80
2019-03-29T06:09:13.165Z,36.33
2019-03-29T06:11:44.038Z,43.40
2019-03-29T06:14:14.807Z,43.20
2019-03-29T06:16:45.632Z,53.10
2019-03-29T06:19:16.519Z,31.33
2019-03-29T06:21:47.478Z,33.23
2019-03-29T06:24:18.317Z,33.30
2019-03-29T06:26:49.132Z,34.70
2019-03-29T06:29:19.859Z,32.57
2019-03-29T06:31:50.778Z,30.97
2019-03-29T06:34:21.511Z,46.93
2019-03-29T06:36:53.911Z,31.53
2019-03-29T06:39:26.773Z,32.00
2019-03-29T06:41:57.638Z,30.07
2019-03-29T06:44:31.005Z,40.40
2019-03-29T06:47:04.126Z,34.93
2019-03-29T06:49:35.325Z,35.03
2019-03-29T06:52:06.508Z,32.13
2019-03-29T06:54:37.357Z,31.20
2019-03-29T06:57:19.378Z,29.67
2019-03-29T07:00:00.500Z,31.50
2019-03-29T07:02:54.278Z,31.00
2019-03-29T07:05:59.553Z,35.13
2019-03-29T07:08:45.702Z,29.90
2019-03-29T07:11:21.195Z,29.17
2019-03-29T07:13:57.871Z,29.17
2019-03-29T07:16:25.076Z,29.73
2019-03-29T07:18:55.881Z,25.10
2019-03-29T07:21:32.965Z,26.63
2019-03-29T07:24:03.952Z,25.30
2019-03-29T07:26:34.799Z,25.77
2019-03-29T07:29:05.724Z,22.97
2019-03-29T07:31:36.585Z,21.30
2019-03-29T07:34:07.479Z,19.33
2019-03-29T07:36:38.779Z,19.03
2019-03-29T07:39:09.574Z,20.90
2019-03-29T07:41:44.514Z,23.57
2019-03-29T07:44:16.431Z,18.13
2019-03-29T07:46:47.525Z,17.23
2019-03-29T07:49:19.480Z,19.00
2019-03-29T07:51:50.966Z,19.00
2019-03-29T07:54:22.034Z,18.27
2019-03-29T07:56:56.011Z,16.20
2019-03-29T07:59:30.009Z,16.17
2019-03-29T08:02:02.365Z,17.43
2019-03-29T08:04:34.348Z,17.40
2019-03-29T08:07:06.284Z,17.30
2019-03-29T08:09:37.533Z,18.53
2019-03-29T08:12:16.518Z,16.23
2019-03-29T08:14:48.347Z,16.80
2019-03-29T08:17:27.834Z,17.00
2019-03-29T08:20:37.362Z,18.13
2019-03-29T08:22:46.371Z,19.17
2019-03-29T08:25:25.874Z,17.60
2019-03-29T08:28:04.720Z,17.43
2019-03-29T08:30:44.786Z,18.30
2019-03-29T08:33:24.726Z,16.60
2019-03-29T08:36:19.857Z,17.20
2019-03-29T08:38:52.651Z,15.50
2019-03-29T08:41:23.648Z,18.53
2019-03-29T08:43:54.493Z,16.60
2019-03-29T08:46:25.318Z,15.70
2019-03-29T08:48:56.537Z,12.93
2019-03-29T08:51:27.331Z,11.63
2019-03-29T08:53:59.038Z,16.07
2019-03-29T08:56:30.066Z,13.17
2019-03-29T08:59:04.653Z,21.00
2019-03-29T09:01:35.968Z,16.57
2019-03-29T09:04:06.823Z,15.13
2019-03-29T09:06:37.681Z,13.47
2019-03-29T09:09:11.860Z,9.90
2019-03-29T09:11:41.690Z,10.80
2019-03-29T09:14:12.472Z,13.40
2019-03-29T09:16:43.336Z,12.90
2019-03-29T09:19:16.546Z,14.87
2019-03-29T09:21:47.302Z,13.93
2019-03-29T09:24:22.223Z,14.47
2019-03-29T09:26:50.602Z,12.30
2019-03-29T09:29:22.741Z,11.07
2019-03-29T09:31:53.555Z,8.67
2019-03-29T09:34:24.426Z,17.37
2019-03-29T09:36:59.896Z,15.00
2019-03-29T09:39:32.749Z,17.67
2019-03-29T09:42:04.142Z,13.63
2019-03-29T09:44:34.979Z,12.63
2019-03-29T09:47:05.759Z,11.50
2019-03-29T09:49:36.677Z,11.37
2019-03-29T09:52:07.437Z,10.40
2019-03-29T09:54:38.198Z,9.90
2019-03-29T09:57:10.143Z,12.07
2019-03-29T09:59:41.937Z,14.23
2019-03-29T10:02:13.093Z,12.27
2019-03-29T10:04:43.838Z,9.00
2019-03-29T10:07:14.675Z,21.27
2019-03-29T10:09:45.490Z,10.33
2019-03-29T10:12:17.014Z,11.00
2019-03-29T10:14:51.283Z,7.53
2019-03-29T10:17:22.569Z,9.60
2019-03-29T10:19:53.417Z,13.43
2019-03-29T10:22:24.200Z,8.03
2019-03-29T10:24:55.219Z,7.60
2019-03-29T10:27:26.098Z,8.93
2019-03-29T10:29:58.190Z,10.83
2019-03-29T10:32:29.028Z,5.57
2019-03-29T10:35:00.015Z,1.50
2019-03-29T10:37:30.875Z,2.23
2019-03-29T10:40:01.799Z,3.30
2019-03-29T10:42:32.711Z,2.83
2019-03-29T10:45:03.820Z,5.13
2019-03-29T10:47:43.629Z,5.80
2019-03-29T10:50:07.842Z,2.97
2019-03-29T10:52:40.982Z,3.90
2019-03-29T10:55:13.549Z,6.13
2019-03-29T10:57:47.202Z,9.53
2019-03-29T11:00:25.784Z,8.90
2019-03-29T11:02:56.946Z,7.73
2019-03-29T11:05:27.734Z,8.17
2019-03-29T11:07:58.551Z,8.97
2019-03-29T11:10:34.491Z,6.90
2019-03-29T11:13:13.017Z,9.23
2019-03-29T11:15:39.402Z,7.90
2019-03-29T11:18:10.287Z,8.80
2019-03-29T11:20:41.148Z,9.60
2019-03-29T11:23:11.917Z,7.73
2019-03-29T11:25:48.264Z,9.60
2019-03-29T11:28:17.315Z,9.87
2019-03-29T11:30:49.152Z,7.83
2019-03-29T11:33:20.012Z,8.33
2019-03-29T11:35:50.724Z,10.97
2019-03-29T11:38:21.579Z,13.73
2019-03-29T11:40:52.361Z,8.80
2019-03-29T11:43:27.088Z,8.90
2019-03-29T11:45:55.966Z,11.03
2019-03-29T11:48:29.563Z,8.87
2019-03-29T11:50:59.650Z,8.93
2019-03-29T11:53:30.437Z,9.90
2019-03-29T11:56:01.199Z,9.03
2019-03-29T11:58:32.107Z,8.80
2019-03-29T12:01:05.494Z,11.37
2019-03-29T12:03:35.913Z,11.33
2019-03-29T12:06:06.745Z,11.90
2019-03-29T12:08:37.653Z,13.17
2019-03-29T12:11:12.224Z,9.33
2019-03-29T12:13:43.585Z,11.13
2019-03-29T12:16:14.829Z,11.03
2019-03-29T12:18:45.664Z,9.67
2019-03-29T12:21:16.630Z,10.10
2019-03-29T12:23:47.534Z,9.60
2019-03-29T12:26:18.279Z,11.67
2019-03-29T12:28:49.304Z,10.83
2019-03-29T12:31:20.122Z,10.87
2019-03-29T12:33:50.886Z,10.73
2019-03-29T12:36:21.624Z,10.10
2019-03-29T12:38:52.431Z,9.57
2019-03-29T12:41:29.545Z,12.70
2019-03-29T12:44:08.852Z,10.57
2019-03-29T12:46:45.798Z,7.93
2019-03-29T12:49:26.257Z,9.93
2019-03-29T12:52:05.507Z,8.87
2019-03-29T12:54:45.061Z,10.10
2019-03-29T12:57:22.985Z,10.07
2019-03-29T13:00:02.533Z,8.63
2019-03-29T13:02:43.514Z,8.37
2019-03-29T13:05:22.377Z,9.77
2019-03-29T13:08:03.810Z,9.50
2019-03-29T13:10:44.754Z,8.57
2019-03-29T13:13:22.703Z,9.83
2019-03-29T13:15:55.658Z,7.77
2019-03-29T13:18:26.484Z,7.87
2019-03-29T13:20:57.487Z,7.10
2019-03-29T13:23:28.232Z,7.47
2019-03-29T13:26:03.384Z,7.50
2019-03-29T13:28:35.632Z,9.10
2019-03-29T13:31:07.139Z,9.23
2019-03-29T13:33:42.954Z,8.23
2019-03-29T13:36:20.854Z,8.83
2019-03-29T13:38:59.026Z,8.00
2019-03-29T13:41:40.032Z,8.17
2019-03-29T13:44:24.482Z,7.90
2019-03-29T13:47:03.024Z,8.70
2019-03-29T13:49:47.242Z,8.57
2019-03-29T13:52:27.117Z,8.73
2019-03-29T13:55:04.857Z,11.80
2019-03-29T13:57:36.821Z,6.70
2019-03-29T14:00:11.017Z,9.87
2019-03-29T14:02:42.915Z,9.33
2019-03-29T14:05:13.826Z,7.53
2019-03-29T14:07:46.543Z,11.70
2019-03-29T14:10:17.324Z,8.90
2019-03-29T14:12:48.132Z,9.30
2019-03-29T14:15:19.600Z,9.20
2019-03-29T14:17:50.833Z,9.67
2019-03-29T14:20:32.118Z,10.93
2019-03-29T14:23:03.989Z,12.77
2019-03-29T14:25:34.793Z,13.30
2019-03-29T14:28:05.855Z,12.00
2019-03-29T14:30:37.154Z,8.70
2019-03-29T14:33:08.260Z,10.20
2019-03-29T14:35:39.488Z,9.80
2019-03-29T14:38:10.610Z,8.57
2019-03-29T14:40:42.843Z,9.03
2019-03-29T14:43:13.733Z,9.10
2019-03-29T14:45:44.877Z,8.77
2019-03-29T14:48:16.780Z,8.33
2019-03-29T14:50:47.992Z,9.50
2019-03-29T14:53:18.806Z,8.40
2019-03-29T14:55:49.724Z,8.67
2019-03-29T14:58:21.108Z,7.87
2019-03-29T15:00:51.833Z,7.53
2019-03-29T15:03:22.781Z,7.20
2019-03-29T15:05:53.667Z,10.17
2019-03-29T15:08:25.417Z,7.40
2019-03-29T15:10:56.182Z,9.20
2019-03-29T15:13:28.378Z,7.23
2019-03-29T15:15:59.480Z,7.00
2019-03-29T15:18:30.490Z,8.37
2019-03-29T15:21:01.449Z,6.90
2019-03-29T15:23:32.474Z,10.67
2019-03-29T15:26:05.604Z,8.70
2019-03-29T15:28:37.597Z,14.77
2019-03-29T15:31:08.650Z,12.93
2019-03-29T15:33:39.656Z,11.47
2019-03-29T15:36:11.642Z,10.33
2019-03-29T15:38:42.454Z,13.40
2019-03-29T15:41:13.219Z,10.93
2019-03-29T15:43:44.259Z,15.40
2019-03-29T15:46:16.075Z,10.40
2019-03-29T15:48:48.296Z,12.13
2019-03-29T15:51:19.203Z,12.50
2019-03-29T15:53:50.032Z,11.77
2019-03-29T15:56:20.793Z,12.23
2019-03-29T15:58:53.879Z,11.23
2019-03-29T16:01:24.705Z,11.43
2019-03-29T16:03:55.755Z,9.43
2019-03-29T16:06:26.557Z,10.97
2019-03-29T16:08:57.738Z,10.97
2019-03-29T16:11:28.611Z,10.07
2019-03-29T16:13:59.516Z,11.17
2019-03-29T16:16:30.364Z,9.90
2019-03-29T16:19:01.433Z,11.10
2019-03-29T16:21:32.283Z,12.13
2019-03-29T16:24:03.126Z,12.67
2019-03-29T16:26:33.936Z,10.57
2019-03-29T16:29:04.913Z,9.40
2019-03-29T16:31:36.005Z,13.33
2019-03-29T16:34:07.057Z,12.03
2019-03-29T16:36:38.894Z,13.67
2019-03-29T16:39:09.740Z,12.30
2019-03-29T16:41:40.582Z,12.40
2019-03-29T16:44:11.491Z,11.67
2019-03-29T16:46:43.534Z,10.83
2019-03-29T16:49:14.375Z,13.20
2019-03-29T16:51:45.139Z,13.30
2019-03-29T16:54:16.003Z,11.97
2019-03-29T16:56:47.210Z,13.07
2019-03-29T16:59:18.031Z,12.17
2019-03-29T17:01:51.264Z,13.63
2019-03-29T17:04:21.572Z,13.60
2019-03-29T17:06:52.354Z,11.47
2019-03-29T17:09:23.265Z,13.77
2019-03-29T17:11:54.064Z,12.57
2019-03-29T17:14:24.946Z,14.27
2019-03-29T17:16:55.718Z,11.53
2019-03-29T17:19:26.562Z,14.53
2019-03-29T17:21:57.375Z,14.37
2019-03-29T17:24:28.297Z,15.57
2019-03-29T17:26:59.053Z,12.53
2019-03-29T17:29:29.818Z,11.73
2019-03-29T17:32:01.008Z,13.67
2019-03-29T17:34:32.426Z,13.50
2019-03-29T17:37:03.269Z,14.27
2019-03-29T17:39:34.185Z,15.13
2019-03-29T17:42:05.039Z,14.43
2019-03-29T17:44:35.980Z,14.03
2019-03-29T17:47:06.790Z,15.30
2019-03-29T17:49:37.635Z,15.33
2019-03-29T17:52:08.452Z,14.87
2019-03-29T17:54:39.368Z,14.57
2019-03-29T17:57:10.110Z,14.33
2019-03-29T17:59:40.931Z,19.43
2019-03-29T18:02:11.780Z,17.77
2019-03-29T18:04:42.908Z,19.73
2019-03-29T18:07:13.675Z,17.57
2019-03-29T18:09:44.738Z,14.80
2019-03-29T18:12:16.070Z,20.43
2019-03-29T18:14:46.961Z,15.20
2019-03-29T18:17:17.734Z,14.80
2019-03-29T18:19:48.673Z,19.70
2019-03-29T18:22:19.516Z,18.13
2019-03-29T18:24:50.367Z,16.87
2019-03-29T18:27:21.143Z,15.17
2019-03-29T18:29:51.924Z,16.67
2019-03-29T18:32:23.960Z,14.77
2019-03-29T18:34:55.299Z,16.87
2019-03-29T18:37:26.212Z,16.40
2019-03-29T18:39:57.106Z,14.83
2019-03-29T18:42:27.818Z,20.17
2019-03-29T18:44:58.691Z,17.07
2019-03-29T18:47:29.552Z,14.73
2019-03-29T18:50:00.466Z,15.07
2019-03-29T18:52:31.269Z,17.97
2019-03-29T18:55:02.103Z,16.80
2019-03-29T18:57:32.906Z,19.33
2019-03-29T19:00:03.833Z,19.63
2019-03-29T19:02:34.958Z,20.00
2019-03-29T19:05:06.408Z,16.53
2019-03-29T19:07:37.527Z,14.47
2019-03-29T19:10:08.553Z,16.23
2019-03-29T19:12:39.313Z,19.33
2019-03-29T19:15:29.735Z,16.00
2019-03-29T19:18:07.027Z,15.97
2019-03-29T19:20:37.941Z,15.83
2019-03-29T19:23:08.778Z,14.23
2019-03-29T19:25:39.634Z,17.10
2019-03-29T19:28:10.517Z,19.10
2019-03-29T19:30:41.295Z,20.67
2019-03-29T19:33:12.040Z,24.07
2019-03-29T19:35:42.997Z,31.60
2019-03-29T19:38:13.846Z,26.83
2019-03-29T19:40:44.611Z,27.33
2019-03-29T19:43:15.505Z,39.80
2019-03-29T19:45:46.258Z,27.47
2019-03-29T19:48:17.058Z,26.80
2019-03-29T19:50:48.053Z,38.60
2019-03-29T19:53:18.899Z,36.07
2019-03-29T19:56:01.902Z,36.80
2019-03-29T19:58:48.475Z,35.33
2019-03-29T20:04:09.775Z,43.47
2019-03-29T20:06:41.011Z,62.17
2019-03-29T20:09:11.833Z,41.73
2019-03-29T20:11:42.918Z,41.43
2019-03-29T20:14:13.678Z,37.20
2019-03-29T20:16:44.464Z,31.30
2019-03-29T20:19:15.270Z,29.17
2019-03-29T20:21:46.208Z,27.50
2019-03-29T20:24:16.934Z,29.70
2019-03-29T20:26:47.748Z,28.07
2019-03-29T20:29:18.570Z,23.03
2019-03-29T20:31:50.687Z,23.80
2019-03-29T20:34:22.602Z,24.00
2019-03-29T20:36:53.575Z,28.07
2019-03-29T20:39:24.534Z,35.77
2019-03-29T20:41:58.983Z,39.63
2019-03-29T20:44:29.763Z,46.13
2019-03-29T20:47:04.419Z,49.57
2019-03-29T20:49:35.565Z,35.87
2019-03-29T20:52:06.547Z,45.77
2019-03-29T20:54:37.299Z,69.97
2019-03-29T20:57:08.069Z,42.67
2019-03-29T20:59:38.888Z,37.20
2019-03-29T21:02:09.649Z,31.80
2019-03-29T21:04:40.392Z,34.30
2019-03-29T21:07:11.865Z,36.50
2019-03-29T21:09:42.660Z,42.77
2019-03-29T21:12:21.385Z,35.90
2019-03-29T21:14:53.364Z,34.80
2019-03-29T21:17:24.154Z,33.17
2019-03-29T21:19:55.715Z,39.63
2019-03-29T21:22:27.650Z,31.63
2019-03-29T21:24:58.404Z,35.23
2019-03-29T21:27:29.961Z,30.77
2019-03-29T21:30:00.808Z,30.07
2019-03-29T21:32:31.686Z,28.00
2019-03-29T21:35:02.416Z,31.30
2019-03-29T21:37:33.195Z,38.60
2019-03-29T21:40:04.242Z,42.20
2019-03-29T21:42:35.008Z,42.80
2019-03-29T21:45:06.409Z,42.47
2019-03-29T21:47:37.382Z,33.63
2019-03-29T21:50:09.290Z,35.43
2019-03-29T21:52:40.266Z,32.80
2019-03-29T21:55:11.076Z,29.93
2019-03-29T21:57:42.148Z,28.63
2019-03-29T22:00:13.636Z,24.63
2019-03-29T22:02:45.060Z,26.23
2019-03-29T22:05:15.797Z,23.93
2019-03-29T22:07:47.169Z,26.97
2019-03-29T22:10:18.017Z,25.93
2019-03-29T22:12:48.917Z,27.33
2019-03-29T22:15:19.757Z,27.33
2019-03-29T22:17:50.500Z,28.97
2019-03-29T22:20:21.288Z,29.80
2019-03-29T22:22:52.194Z,24.73
2019-03-29T22:25:22.939Z,27.43
2019-03-29T22:27:53.712Z,23.10
2019-03-29T22:30:24.545Z,26.73
2019-03-29T22:32:55.488Z,26.87
2019-03-29T22:35:26.208Z,29.97
2019-03-29T22:37:57.093Z,25.57
2019-03-29T22:40:27.875Z,25.80
2019-03-29T22:42:58.647Z,23.93
2019-03-29T22:45:29.393Z,26.77
2019-03-29T22:48:00.254Z,27.80
2019-03-29T22:50:31.074Z,27.53
2019-03-29T22:53:01.890Z,26.17
2019-03-29T22:55:32.632Z,23.80
2019-03-29T22:58:03.388Z,28.13
2019-03-29T23:00:37.543Z,26.03
2019-03-29T23:03:10.061Z,30.53
2019-03-29T23:05:40.791Z,28.40
2019-03-29T23:08:11.562Z,26.67
2019-03-29T23:10:42.348Z,32.80
2019-03-29T23:13:13.583Z,33.50
2019-03-29T23:15:44.325Z,31.00
2019-03-29T23:18:15.066Z,27.40
2019-03-29T23:20:45.861Z,27.07
2019-03-29T23:23:16.795Z,24.00
2019-03-29T23:25:48.148Z,26.63
2019-03-29T23:28:18.993Z,25.60
2019-03-29T23:30:49.851Z,25.33
2019-03-29T23:33:20.700Z,27.10
2019-03-29T23:35:51.521Z,29.67
2019-03-29T23:38:22.511Z,27.30
2019-03-29T23:40:53.301Z,27.47
2019-03-29T23:43:24.148Z,24.17
2019-03-29T23:45:54.970Z,26.87
2019-03-29T23:48:25.827Z,24.13
2019-03-29T23:50:56.626Z,24.37
2019-03-29T23:53:27.614Z,23.60
2019-03-29T23:55:58.324Z,25.10
2019-03-29T23:58:29.123Z,25.97
